sensor_id;sensor_type;location;lat;lon;timestamp;P1;durP1;ratioP1;P2;durP2;ratioP2
47401;SDS011;33155;48.370;-3.750;2022-07-29T06:00:54;0.40;;;0.40;;
47401;SDS011;33155;48.370;-3.750;2022-07-29T06:03:24;1.05;;;0.70;;
47401;SDS011;33155;48.370;-3.750;2022-07-29T06:05:50;0.40;;;0.40;;
47401;SDS011;33155;48.370;-3.750;2022-07-29T06:08:15;1.67;;;0.82;;
47401;SDS011;33155;48.370;-3.750;2022-07-29T06:10:40;0.57;;;0.55;;
47401;SDS011;33155;48.370;-3.750;2022-07-29T06:13:06;0.85;;;0.68;;
47401;SDS011;33155;48.370;-3.750;2022-07-29T06:15:32;0.82;;;0.77;;
47401;SDS011;33155;48.370;-3.750;2022-07-29T06:17:58;1.05;;;0.90;;
47401;SDS011;33155;48.370;-3.750;2022-07-29T06:20:23;3.30;;;0.68;;
47401;SDS011;33155;48.370;-3.750;2022-07-29T06:22:49;0.95;;;0.88;;
47401;SDS011;33155;48.370;-3.750;2022-07-29T06:25:14;3.72;;;1.00;;
47401;SDS011;33155;48.370;-3.750;2022-07-29T06:27:40;1.00;;;0.90;;
47401;SDS011;33155;48.370;-3.750;2022-07-29T06:30:05;0.93;;;0.75;;
47401;SDS011;33155;48.370;-3.750;2022-07-29T06:32:33;1.58;;;0.95;;
47401;SDS011;33155;48.370;-3.750;2022-07-29T06:35:00;0.98;;;0.80;;
47401;SDS011;33155;48.370;-3.750;2022-07-29T06:37:26;0.65;;;0.65;;
47401;SDS011;33155;48.370;-3.750;2022-07-29T06:39:51;0.73;;;0.73;;
47401;SDS011;33155;48.370;-3.750;2022-07-29T06:42:36;1.00;;;0.90;;
47401;SDS011;33155;48.370;-3.750;2022-07-29T06:45:02;0.88;;;0.77;;
47401;SDS011;33155;48.370;-3.750;2022-07-29T06:47:28;1.10;;;0.80;;
47401;SDS011;33155;48.370;-3.750;2022-07-29T06:49:54;1.23;;;0.80;;
47401;SDS011;33155;48.370;-3.750;2022-07-29T06:52:19;1.75;;;0.90;;
47401;SDS011;33155;48.370;-3.750;2022-07-29T06:54:45;1.35;;;0.93;;
47401;SDS011;33155;48.370;-3.750;2022-07-29T06:57:14;1.10;;;0.82;;
47401;SDS011;33155;48.370;-3.750;2022-07-29T06:59:39;1.30;;;1.00;;
47401;SDS011;33155;48.370;-3.750;2022-07-29T07:02:05;1.13;;;0.98;;
47401;SDS011;33155;48.370;-3.750;2022-07-29T07:04:30;1.50;;;1.13;;
47401;SDS011;33155;48.370;-3.750;2022-07-29T07:06:56;0.77;;;0.77;;
47401;SDS011;33155;48.370;-3.750;2022-07-29T07:09:22;0.70;;;0.70;;
47401;SDS011;33155;48.370;-3.750;2022-07-29T07:11:48;1.30;;;0.90;;
47401;SDS011;33155;48.370;-3.750;2022-07-29T07:14:13;0.70;;;0.70;;
47401;SDS011;33155;48.370;-3.750;2022-07-29T07:16:39;1.20;;;1.02;;
47401;SDS011;33155;48.370;-3.750;2022-07-29T07:19:04;2.28;;;1.20;;
47401;SDS011;33155;48.370;-3.750;2022-07-29T07:21:30;14.50;;;3.47;;
47401;SDS011;33155;48.370;-3.750;2022-07-29T07:23:55;8.48;;;3.50;;
47401;SDS011;33155;48.370;-3.750;2022-07-29T07:26:21;6.28;;;3.00;;
47401;SDS011;33155;48.370;-3.750;2022-07-29T07:28:46;5.57;;;2.38;;
47401;SDS011;33155;48.370;-3.750;2022-07-29T07:31:12;2.95;;;1.73;;
47401;SDS011;33155;48.370;-3.750;2022-07-29T07:33:37;3.63;;;1.70;;
47401;SDS011;33155;48.370;-3.750;2022-07-29T07:36:03;3.75;;;2.33;;
47401;SDS011;33155;48.370;-3.750;2022-07-29T07:38:28;3.45;;;2.00;;
47401;SDS011;33155;48.370;-3.750;2022-07-29T07:40:54;2.55;;;1.63;;
47401;SDS011;33155;48.370;-3.750;2022-07-29T07:43:19;3.38;;;1.55;;
47401;SDS011;33155;48.370;-3.750;2022-07-29T07:45:45;2.40;;;1.75;;
47401;SDS011;33155;48.370;-3.750;2022-07-29T07:48:10;1.90;;;1.63;;
47401;SDS011;33155;48.370;-3.750;2022-07-29T07:50:36;2.95;;;1.83;;
47401;SDS011;33155;48.370;-3.750;2022-07-29T07:53:02;2.00;;;1.30;;
47401;SDS011;33155;48.370;-3.750;2022-07-29T07:55:27;2.40;;;1.50;;
47401;SDS011;33155;48.370;-3.750;2022-07-29T07:57:53;2.22;;;1.60;;
47401;SDS011;33155;48.370;-3.750;2022-07-29T08:00:20;2.42;;;1.10;;
47401;SDS011;33155;48.370;-3.750;2022-07-29T08:02:46;1.63;;;1.25;;
47401;SDS011;33155;48.370;-3.750;2022-07-29T08:05:12;1.65;;;1.13;;
47401;SDS011;33155;48.370;-3.750;2022-07-29T08:07:42;2.08;;;1.40;;
47401;SDS011;33155;48.370;-3.750;2022-07-29T08:10:12;2.03;;;1.40;;
47401;SDS011;33155;48.370;-3.750;2022-07-29T08:12:38;1.75;;;1.27;;
47401;SDS011;33155;48.370;-3.750;2022-07-29T08:15:04;2.20;;;1.40;;
47401;SDS011;33155;48.370;-3.750;2022-07-29T08:17:32;2.72;;;1.60;;
47401;SDS011;33155;48.370;-3.750;2022-07-29T08:19:58;1.20;;;1.10;;
47401;SDS011;33155;48.370;-3.750;2022-07-29T08:22:23;1.40;;;1.25;;
47401;SDS011;33155;48.370;-3.750;2022-07-29T08:24:49;1.58;;;1.48;;
47401;SDS011;33155;48.370;-3.750;2022-07-29T08:27:18;1.63;;;1.20;;
47401;SDS011;33155;48.370;-3.750;2022-07-29T08:29:45;2.42;;;1.30;;
47401;SDS011;33155;48.370;-3.750;2022-07-29T08:32:10;1.23;;;1.13;;
47401;SDS011;33155;48.370;-3.750;2022-07-29T08:34:35;2.60;;;1.25;;
47401;SDS011;33155;48.370;-3.750;2022-07-29T08:37:01;1.65;;;1.08;;
47401;SDS011;33155;48.370;-3.750;2022-07-29T08:39:26;1.30;;;1.00;;
47401;SDS011;33155;48.370;-3.750;2022-07-29T08:41:52;1.80;;;1.08;;
47401;SDS011;33155;48.370;-3.750;2022-07-29T08:44:18;1.27;;;1.17;;
47401;SDS011;33155;48.370;-3.750;2022-07-29T08:46:44;1.60;;;1.00;;
47401;SDS011;33155;48.370;-3.750;2022-07-29T08:49:10;1.05;;;0.95;;
47401;SDS011;33155;48.370;-3.750;2022-07-29T08:51:36;1.58;;;0.90;;
47401;SDS011;33155;48.370;-3.750;2022-07-29T08:54:02;1.15;;;1.05;;
47401;SDS011;33155;48.370;-3.750;2022-07-29T08:56:28;1.30;;;1.10;;
47401;SDS011;33155;48.370;-3.750;2022-07-29T08:58:54;1.52;;;1.23;;
47401;SDS011;33155;48.370;-3.750;2022-07-29T09:01:24;3.40;;;1.25;;
47401;SDS011;33155;48.370;-3.750;2022-07-29T09:03:50;1.58;;;1.25;;
47401;SDS011;33155;48.370;-3.750;2022-07-29T09:06:20;0.85;;;0.85;;
47401;SDS011;33155;48.370;-3.750;2022-07-29T09:08:46;2.70;;;1.50;;
47401;SDS011;33155;48.370;-3.750;2022-07-29T09:11:12;1.30;;;1.00;;
47401;SDS011;33155;48.370;-3.750;2022-07-29T09:13:38;1.13;;;1.02;;
47401;SDS011;33155;48.370;-3.750;2022-07-29T09:16:04;1.83;;;1.10;;
47401;SDS011;33155;48.370;-3.750;2022-07-29T09:18:37;2.00;;;1.10;;
47401;SDS011;33155;48.370;-3.750;2022-07-29T09:21:05;1.15;;;1.05;;
47401;SDS011;33155;48.370;-3.750;2022-07-29T09:24:00;2.13;;;0.98;;
47401;SDS011;33155;48.370;-3.750;2022-07-29T09:26:30;1.70;;;0.85;;
47401;SDS011;33155;48.370;-3.750;2022-07-29T09:29:07;0.98;;;0.63;;
47401;SDS011;33155;48.370;-3.750;2022-07-29T09:31:37;0.80;;;0.80;;
47401;SDS011;33155;48.370;-3.750;2022-07-29T09:34:05;0.93;;;0.73;;
47401;SDS011;33155;48.370;-3.750;2022-07-29T09:36:35;0.77;;;0.77;;
47401;SDS011;33155;48.370;-3.750;2022-07-29T09:39:04;2.15;;;0.90;;
47401;SDS011;33155;48.370;-3.750;2022-07-29T09:41:29;2.63;;;0.90;;
47401;SDS011;33155;48.370;-3.750;2022-07-29T09:43:55;1.13;;;1.02;;
47401;SDS011;33155;48.370;-3.750;2022-07-29T09:46:21;0.80;;;0.80;;
47401;SDS011;33155;48.370;-3.750;2022-07-29T09:49:05;1.38;;;0.80;;
47401;SDS011;33155;48.370;-3.750;2022-07-29T09:51:35;0.73;;;0.60;;
47401;SDS011;33155;48.370;-3.750;2022-07-29T09:54:00;1.52;;;0.68;;
47401;SDS011;33155;48.370;-3.750;2022-07-29T09:56:41;1.20;;;0.80;;
47401;SDS011;33155;48.370;-3.750;2022-07-29T09:59:08;2.05;;;0.90;;
47401;SDS011;33155;48.370;-3.750;2022-07-29T10:01:34;1.60;;;0.98;;
47401;SDS011;33155;48.370;-3.750;2022-07-29T10:04:01;1.30;;;0.75;;
47401;SDS011;33155;48.370;-3.750;2022-07-29T10:06:27;1.02;;;0.93;;
47401;SDS011;33155;48.370;-3.750;2022-07-29T10:08:53;1.45;;;0.80;;
47401;SDS011;33155;48.370;-3.750;2022-07-29T10:11:19;0.90;;;0.70;;
47401;SDS011;33155;48.370;-3.750;2022-07-29T10:13:46;0.85;;;0.80;;
47401;SDS011;33155;48.370;-3.750;2022-07-29T10:16:12;0.63;;;0.50;;
47401;SDS011;33155;48.370;-3.750;2022-07-29T10:18:39;1.83;;;1.10;;
47401;SDS011;33155;48.370;-3.750;2022-07-29T10:21:05;0.93;;;0.77;;
47401;SDS011;33155;48.370;-3.750;2022-07-29T10:23:32;2.55;;;1.00;;
47401;SDS011;33155;48.370;-3.750;2022-07-29T10:25:58;1.85;;;0.90;;
47401;SDS011;33155;48.370;-3.750;2022-07-29T10:28:25;1.63;;;0.95;;
47401;SDS011;33155;48.370;-3.750;2022-07-29T10:30:51;1.20;;;1.08;;
47401;SDS011;33155;48.370;-3.750;2022-07-29T10:38:42;0.65;;;0.65;;
47401;SDS011;33155;48.370;-3.750;2022-07-29T10:41:12;1.38;;;0.80;;
47401;SDS011;33155;48.370;-3.750;2022-07-29T10:44:01;0.95;;;0.80;;
47401;SDS011;33155;48.370;-3.750;2022-07-29T10:46:27;1.10;;;0.65;;
47401;SDS011;33155;48.370;-3.750;2022-07-29T10:54:17;0.82;;;0.70;;
47401;SDS011;33155;48.370;-3.750;2022-07-29T10:56:43;0.90;;;0.77;;
47401;SDS011;33155;48.370;-3.750;2022-07-29T11:01:46;1.08;;;0.70;;
47401;SDS011;33155;48.370;-3.750;2022-07-29T11:04:13;0.80;;;0.68;;
47401;SDS011;33155;48.370;-3.750;2022-07-29T11:09:29;1.58;;;0.63;;
47401;SDS011;33155;48.370;-3.750;2022-07-29T11:11:55;1.45;;;1.00;;
47401;SDS011;33155;48.370;-3.750;2022-07-29T11:17:24;0.73;;;0.70;;
47401;SDS011;33155;48.370;-3.750;2022-07-29T11:19:49;1.25;;;0.90;;
47401;SDS011;33155;48.370;-3.750;2022-07-29T11:22:33;1.83;;;0.93;;
47401;SDS011;33155;48.370;-3.750;2022-07-29T11:25:15;3.22;;;0.90;;
47401;SDS011;33155;48.370;-3.750;2022-07-29T11:27:43;1.50;;;1.00;;
47401;SDS011;33155;48.370;-3.750;2022-07-29T11:30:10;0.90;;;0.77;;
47401;SDS011;33155;48.370;-3.750;2022-07-29T11:32:41;1.23;;;0.75;;
47401;SDS011;33155;48.370;-3.750;2022-07-29T11:43:48;3.25;;;0.77;;
47401;SDS011;33155;48.370;-3.750;2022-07-29T11:49:08;1.55;;;0.82;;
47401;SDS011;33155;48.370;-3.750;2022-07-29T11:51:35;1.05;;;0.77;;
47401;SDS011;33155;48.370;-3.750;2022-07-29T11:54:01;0.85;;;0.85;;
47401;SDS011;33155;48.370;-3.750;2022-07-29T11:56:27;1.05;;;0.70;;
47401;SDS011;33155;48.370;-3.750;2022-07-29T11:59:03;0.65;;;0.60;;
47401;SDS011;33155;48.370;-3.750;2022-07-29T12:01:32;0.88;;;0.65;;
47401;SDS011;33155;48.370;-3.750;2022-07-29T12:04:04;0.65;;;0.50;;
47401;SDS011;33155;48.370;-3.750;2022-07-29T12:06:30;0.70;;;0.52;;
47401;SDS011;33155;48.370;-3.750;2022-07-29T12:08:56;0.70;;;0.70;;
47401;SDS011;33155;48.370;-3.750;2022-07-29T12:11:21;0.75;;;0.75;;
47401;SDS011;33155;48.370;-3.750;2022-07-29T12:13:47;1.02;;;0.93;;
47401;SDS011;33155;48.370;-3.750;2022-07-29T12:16:13;1.80;;;0.70;;
47401;SDS011;33155;48.370;-3.750;2022-07-29T12:18:39;0.75;;;0.60;;
47401;SDS011;33155;48.370;-3.750;2022-07-29T12:21:04;0.50;;;0.50;;
47401;SDS011;33155;48.370;-3.750;2022-07-29T12:23:30;1.23;;;0.82;;
47401;SDS011;33155;48.370;-3.750;2022-07-29T12:25:57;1.63;;;0.75;;
47401;SDS011;33155;48.370;-3.750;2022-07-29T12:28:23;1.05;;;0.73;;
47401;SDS011;33155;48.370;-3.750;2022-07-29T12:30:49;1.80;;;1.08;;
47401;SDS011;33155;48.370;-3.750;2022-07-29T12:35:46;0.98;;;0.45;;
47401;SDS011;33155;48.370;-3.750;2022-07-29T12:38:14;0.70;;;0.70;;
47401;SDS011;33155;48.370;-3.750;2022-07-29T12:40:40;2.17;;;0.82;;
47401;SDS011;33155;48.370;-3.750;2022-07-29T12:43:07;0.98;;;0.60;;
47401;SDS011;33155;48.370;-3.750;2022-07-29T12:45:34;0.75;;;0.70;;
47401;SDS011;33155;48.370;-3.750;2022-07-29T12:48:01;0.57;;;0.50;;
47401;SDS011;33155;48.370;-3.750;2022-07-29T12:50:26;0.63;;;0.60;;
47401;SDS011;33155;48.370;-3.750;2022-07-29T12:52:52;1.00;;;0.60;;
47401;SDS011;33155;48.370;-3.750;2022-07-29T12:58:06;0.68;;;0.60;;
47401;SDS011;33155;48.370;-3.750;2022-07-29T13:00:32;0.75;;;0.50;;
47401;SDS011;33155;48.370;-3.750;2022-07-29T13:02:58;0.70;;;0.70;;
47401;SDS011;33155;48.370;-3.750;2022-07-29T13:05:38;1.17;;;0.60;;
47401;SDS011;33155;48.370;-3.750;2022-07-29T13:08:10;1.83;;;0.80;;
47401;SDS011;33155;48.370;-3.750;2022-07-29T13:10:37;0.52;;;0.50;;
47401;SDS011;33155;48.370;-3.750;2022-07-29T13:13:06;0.75;;;0.65;;
47401;SDS011;33155;48.370;-3.750;2022-07-29T13:15:35;0.50;;;0.50;;
47401;SDS011;33155;48.370;-3.750;2022-07-29T13:18:04;0.55;;;0.50;;
47401;SDS011;33155;48.370;-3.750;2022-07-29T13:20:30;0.50;;;0.43;;
47401;SDS011;33155;48.370;-3.750;2022-07-29T13:22:56;1.00;;;0.57;;
47401;SDS011;33155;48.370;-3.750;2022-07-29T13:25:24;1.35;;;1.02;;
47401;SDS011;33155;48.370;-3.750;2022-07-29T13:27:53;0.50;;;0.50;;
47401;SDS011;33155;48.370;-3.750;2022-07-29T13:30:20;0.73;;;0.50;;
47401;SDS011;33155;48.370;-3.750;2022-07-29T13:32:46;2.00;;;0.63;;
47401;SDS011;33155;48.370;-3.750;2022-07-29T13:35:12;1.02;;;0.93;;
47401;SDS011;33155;48.370;-3.750;2022-07-29T13:37:38;0.47;;;0.40;;
47401;SDS011;33155;48.370;-3.750;2022-07-29T13:40:04;0.40;;;0.40;;
47401;SDS011;33155;48.370;-3.750;2022-07-29T13:42:31;0.43;;;0.43;;
47401;SDS011;33155;48.370;-3.750;2022-07-29T13:44:57;0.70;;;0.40;;
47401;SDS011;33155;48.370;-3.750;2022-07-29T13:47:23;0.35;;;0.35;;
47401;SDS011;33155;48.370;-3.750;2022-07-29T13:49:49;0.68;;;0.40;;
47401;SDS011;33155;48.370;-3.750;2022-07-29T13:52:15;0.50;;;0.50;;
47401;SDS011;33155;48.370;-3.750;2022-07-29T13:54:40;0.47;;;0.40;;
47401;SDS011;33155;48.370;-3.750;2022-07-29T13:57:06;0.40;;;0.40;;
47401;SDS011;33155;48.370;-3.750;2022-07-29T13:59:32;0.70;;;0.52;;
47401;SDS011;33155;48.370;-3.750;2022-07-29T14:01:58;0.30;;;0.30;;
47401;SDS011;33155;48.370;-3.750;2022-07-29T14:04:24;0.75;;;0.50;;
47401;SDS011;33155;48.370;-3.750;2022-07-29T14:06:49;0.40;;;0.40;;
47401;SDS011;33155;48.370;-3.750;2022-07-29T14:09:15;0.63;;;0.55;;
47401;SDS011;33155;48.370;-3.750;2022-07-29T14:11:41;0.85;;;0.50;;
47401;SDS011;33155;48.370;-3.750;2022-07-29T14:14:06;0.60;;;0.55;;
47401;SDS011;33155;48.370;-3.750;2022-07-29T14:16:32;0.47;;;0.45;;
47401;SDS011;33155;48.370;-3.750;2022-07-29T14:18:58;0.52;;;0.40;;
47401;SDS011;33155;48.370;-3.750;2022-07-29T14:21:24;0.47;;;0.38;;
47401;SDS011;33155;48.370;-3.750;2022-07-29T14:23:50;0.50;;;0.50;;
47401;SDS011;33155;48.370;-3.750;2022-07-29T14:26:17;0.55;;;0.55;;
47401;SDS011;33155;48.370;-3.750;2022-07-29T14:28:42;0.30;;;0.30;;
47401;SDS011;33155;48.370;-3.750;2022-07-29T14:31:08;1.20;;;0.47;;
47401;SDS011;33155;48.370;-3.750;2022-07-29T14:33:34;0.50;;;0.50;;
47401;SDS011;33155;48.370;-3.750;2022-07-29T14:35:59;0.28;;;0.28;;
47401;SDS011;33155;48.370;-3.750;2022-07-29T14:38:25;0.40;;;0.40;;
47401;SDS011;33155;48.370;-3.750;2022-07-29T14:40:50;0.52;;;0.40;;
47401;SDS011;33155;48.370;-3.750;2022-07-29T14:43:16;0.43;;;0.35;;
47401;SDS011;33155;48.370;-3.750;2022-07-29T14:45:41;0.43;;;0.32;;
47401;SDS011;33155;48.370;-3.750;2022-07-29T14:48:07;1.83;;;0.50;;
47401;SDS011;33155;48.370;-3.750;2022-07-29T14:50:32;0.32;;;0.32;;
47401;SDS011;33155;48.370;-3.750;2022-07-29T14:53:00;1.10;;;0.63;;
47401;SDS011;33155;48.370;-3.750;2022-07-29T14:55:26;0.80;;;0.60;;
47401;SDS011;33155;48.370;-3.750;2022-07-29T14:57:51;0.22;;;0.22;;
47401;SDS011;33155;48.370;-3.750;2022-07-29T15:00:17;0.40;;;0.40;;
47401;SDS011;33155;48.370;-3.750;2022-07-29T15:02:43;0.43;;;0.40;;
47401;SDS011;33155;48.370;-3.750;2022-07-29T15:05:08;0.35;;;0.30;;
47401;SDS011;33155;48.370;-3.750;2022-07-29T15:07:34;0.93;;;0.40;;
47401;SDS011;33155;48.370;-3.750;2022-07-29T15:10:00;0.40;;;0.40;;
47401;SDS011;33155;48.370;-3.750;2022-07-29T15:12:25;1.27;;;0.50;;
47401;SDS011;33155;48.370;-3.750;2022-07-29T15:14:50;0.40;;;0.30;;
47401;SDS011;33155;48.370;-3.750;2022-07-29T15:17:16;0.50;;;0.50;;
47401;SDS011;33155;48.370;-3.750;2022-07-29T15:19:41;0.47;;;0.40;;
47401;SDS011;33155;48.370;-3.750;2022-07-29T15:22:07;0.30;;;0.30;;
47401;SDS011;33155;48.370;-3.750;2022-07-29T15:24:32;0.85;;;0.60;;
47401;SDS011;33155;48.370;-3.750;2022-07-29T15:26:58;0.50;;;0.40;;
47401;SDS011;33155;48.370;-3.750;2022-07-29T15:29:24;1.50;;;0.60;;
47401;SDS011;33155;48.370;-3.750;2022-07-29T15:31:49;0.43;;;0.30;;
47401;SDS011;33155;48.370;-3.750;2022-07-29T15:34:15;0.95;;;0.65;;
47401;SDS011;33155;48.370;-3.750;2022-07-29T15:36:40;0.75;;;0.60;;
47401;SDS011;33155;48.370;-3.750;2022-07-29T15:39:06;0.82;;;0.50;;
47401;SDS011;33155;48.370;-3.750;2022-07-29T15:41:32;1.05;;;0.57;;
47401;SDS011;33155;48.370;-3.750;2022-07-29T15:43:58;0.40;;;0.40;;
47401;SDS011;33155;48.370;-3.750;2022-07-29T15:46:23;0.30;;;0.30;;
47401;SDS011;33155;48.370;-3.750;2022-07-29T15:49:07;1.45;;;0.50;;
47401;SDS011;33155;48.370;-3.750;2022-07-29T15:51:33;0.30;;;0.30;;
47401;SDS011;33155;48.370;-3.750;2022-07-29T15:54:00;0.88;;;0.40;;
47401;SDS011;33155;48.370;-3.750;2022-07-29T15:56:27;0.30;;;0.30;;
47401;SDS011;33155;48.370;-3.750;2022-07-29T15:58:52;0.90;;;0.70;;
47401;SDS011;33155;48.370;-3.750;2022-07-29T16:01:18;0.50;;;0.50;;
47401;SDS011;33155;48.370;-3.750;2022-07-29T16:03:43;0.40;;;0.40;;
47401;SDS011;33155;48.370;-3.750;2022-07-29T16:06:09;0.43;;;0.40;;
47401;SDS011;33155;48.370;-3.750;2022-07-29T16:08:34;2.47;;;0.60;;
47401;SDS011;33155;48.370;-3.750;2022-07-29T16:11:00;0.50;;;0.50;;
47401;SDS011;33155;48.370;-3.750;2022-07-29T16:13:26;0.40;;;0.40;;
47401;SDS011;33155;48.370;-3.750;2022-07-29T16:15:52;1.65;;;0.60;;
47401;SDS011;33155;48.370;-3.750;2022-07-29T16:18:17;0.60;;;0.40;;
47401;SDS011;33155;48.370;-3.750;2022-07-29T16:20:43;0.65;;;0.40;;
47401;SDS011;33155;48.370;-3.750;2022-07-29T16:23:08;0.45;;;0.40;;
47401;SDS011;33155;48.370;-3.750;2022-07-29T16:25:37;0.60;;;0.60;;
47401;SDS011;33155;48.370;-3.750;2022-07-29T16:28:03;2.83;;;0.50;;
47401;SDS011;33155;48.370;-3.750;2022-07-29T16:30:29;0.40;;;0.40;;
47401;SDS011;33155;48.370;-3.750;2022-07-29T16:32:54;0.38;;;0.38;;
47401;SDS011;33155;48.370;-3.750;2022-07-29T16:35:20;0.60;;;0.47;;
47401;SDS011;33155;48.370;-3.750;2022-07-29T16:37:45;0.40;;;0.40;;
47401;SDS011;33155;48.370;-3.750;2022-07-29T16:40:11;0.50;;;0.40;;
47401;SDS011;33155;48.370;-3.750;2022-07-29T16:42:36;0.88;;;0.50;;
47401;SDS011;33155;48.370;-3.750;2022-07-29T16:45:02;0.50;;;0.50;;
47401;SDS011;33155;48.370;-3.750;2022-07-29T16:47:28;1.30;;;0.60;;
47401;SDS011;33155;48.370;-3.750;2022-07-29T16:49:54;0.50;;;0.40;;
47401;SDS011;33155;48.370;-3.750;2022-07-29T16:52:19;0.30;;;0.30;;
47401;SDS011;33155;48.370;-3.750;2022-07-29T16:54:45;0.40;;;0.40;;
47401;SDS011;33155;48.370;-3.750;2022-07-29T16:57:10;1.15;;;0.40;;
47401;SDS011;33155;48.370;-3.750;2022-07-29T16:59:36;1.00;;;0.60;;
47401;SDS011;33155;48.370;-3.750;2022-07-29T17:02:02;0.52;;;0.50;;
47401;SDS011;33155;48.370;-3.750;2022-07-29T17:04:28;0.50;;;0.50;;
47401;SDS011;33155;48.370;-3.750;2022-07-29T17:06:55;0.85;;;0.50;;
47401;SDS011;33155;48.370;-3.750;2022-07-29T17:09:20;0.90;;;0.57;;
47401;SDS011;33155;48.370;-3.750;2022-07-29T17:11:46;0.68;;;0.47;;
47401;SDS011;33155;48.370;-3.750;2022-07-29T17:14:18;0.52;;;0.50;;
47401;SDS011;33155;48.370;-3.750;2022-07-29T17:16:44;0.30;;;0.30;;
47401;SDS011;33155;48.370;-3.750;2022-07-29T17:19:09;0.45;;;0.40;;
47401;SDS011;33155;48.370;-3.750;2022-07-29T17:21:35;0.57;;;0.52;;
47401;SDS011;33155;48.370;-3.750;2022-07-29T17:24:00;0.40;;;0.40;;
47401;SDS011;33155;48.370;-3.750;2022-07-29T17:26:26;0.55;;;0.55;;
47401;SDS011;33155;48.370;-3.750;2022-07-29T17:28:52;0.50;;;0.50;;
47401;SDS011;33155;48.370;-3.750;2022-07-29T17:31:18;0.90;;;0.38;;
47401;SDS011;33155;48.370;-3.750;2022-07-29T17:33:43;0.55;;;0.40;;
47401;SDS011;33155;48.370;-3.750;2022-07-29T17:36:08;0.57;;;0.40;;
47401;SDS011;33155;48.370;-3.750;2022-07-29T17:38:50;1.75;;;0.43;;
47401;SDS011;33155;48.370;-3.750;2022-07-29T17:41:17;0.32;;;0.20;;
47401;SDS011;33155;48.370;-3.750;2022-07-29T17:43:42;0.98;;;0.40;;
47401;SDS011;33155;48.370;-3.750;2022-07-29T17:46:08;0.43;;;0.40;;
47401;SDS011;33155;48.370;-3.750;2022-07-29T17:48:34;1.08;;;0.52;;
47401;SDS011;33155;48.370;-3.750;2022-07-29T17:51:00;1.75;;;0.60;;
47401;SDS011;33155;48.370;-3.750;2022-07-29T17:53:26;0.45;;;0.40;;
47401;SDS011;33155;48.370;-3.750;2022-07-29T17:55:52;0.60;;;0.50;;
47401;SDS011;33155;48.370;-3.750;2022-07-29T17:58:20;0.55;;;0.55;;
47401;SDS011;33155;48.370;-3.750;2022-07-29T18:00:46;0.55;;;0.38;;
47401;SDS011;33155;48.370;-3.750;2022-07-29T18:03:12;1.75;;;0.80;;
47401;SDS011;33155;48.370;-3.750;2022-07-29T18:05:38;0.40;;;0.40;;
47401;SDS011;33155;48.370;-3.750;2022-07-29T18:08:04;0.35;;;0.35;;
47401;SDS011;33155;48.370;-3.750;2022-07-29T18:10:29;0.40;;;0.40;;
47401;SDS011;33155;48.370;-3.750;2022-07-29T18:12:55;0.70;;;0.63;;
47401;SDS011;33155;48.370;-3.750;2022-07-29T18:15:20;0.30;;;0.30;;
47401;SDS011;33155;48.370;-3.750;2022-07-29T18:17:46;0.50;;;0.40;;
47401;SDS011;33155;48.370;-3.750;2022-07-29T18:20:11;0.82;;;0.40;;
47401;SDS011;33155;48.370;-3.750;2022-07-29T18:22:37;0.40;;;0.35;;
47401;SDS011;33155;48.370;-3.750;2022-07-29T18:25:02;0.50;;;0.30;;
47401;SDS011;33155;48.370;-3.750;2022-07-29T18:27:28;0.43;;;0.43;;
47401;SDS011;33155;48.370;-3.750;2022-07-29T18:29:54;0.90;;;0.45;;
47401;SDS011;33155;48.370;-3.750;2022-07-29T18:34:43;0.47;;;0.40;;
47401;SDS011;33155;48.370;-3.750;2022-07-29T18:37:08;1.13;;;0.47;;
47401;SDS011;33155;48.370;-3.750;2022-07-29T18:39:34;0.63;;;0.50;;
47401;SDS011;33155;48.370;-3.750;2022-07-29T18:41:59;1.05;;;0.50;;
47401;SDS011;33155;48.370;-3.750;2022-07-29T18:44:25;0.63;;;0.50;;
47401;SDS011;33155;48.370;-3.750;2022-07-29T18:46:50;0.68;;;0.50;;
47401;SDS011;33155;48.370;-3.750;2022-07-29T18:49:16;0.55;;;0.40;;
47401;SDS011;33155;48.370;-3.750;2022-07-29T18:51:42;0.57;;;0.40;;
47401;SDS011;33155;48.370;-3.750;2022-07-29T18:54:08;0.60;;;0.30;;
47401;SDS011;33155;48.370;-3.750;2022-07-29T18:56:34;0.90;;;0.30;;
47401;SDS011;33155;48.370;-3.750;2022-07-29T18:59:00;1.40;;;0.50;;
47401;SDS011;33155;48.370;-3.750;2022-07-29T19:01:26;0.68;;;0.40;;
47401;SDS011;33155;48.370;-3.750;2022-07-29T19:03:51;0.85;;;0.57;;
47401;SDS011;33155;48.370;-3.750;2022-07-29T19:06:17;0.40;;;0.40;;
47401;SDS011;33155;48.370;-3.750;2022-07-29T19:08:42;1.20;;;0.47;;
47401;SDS011;33155;48.370;-3.750;2022-07-29T19:11:08;0.45;;;0.30;;
47401;SDS011;33155;48.370;-3.750;2022-07-29T19:13:33;0.40;;;0.40;;
47401;SDS011;33155;48.370;-3.750;2022-07-29T19:16:01;0.60;;;0.40;;
47401;SDS011;33155;48.370;-3.750;2022-07-29T19:18:26;0.68;;;0.50;;
47401;SDS011;33155;48.370;-3.750;2022-07-29T19:20:52;0.55;;;0.40;;
47401;SDS011;33155;48.370;-3.750;2022-07-29T19:23:19;0.40;;;0.40;;
47401;SDS011;33155;48.370;-3.750;2022-07-29T19:25:46;0.40;;;0.40;;
47401;SDS011;33155;48.370;-3.750;2022-07-29T19:28:12;0.50;;;0.40;;
47401;SDS011;33155;48.370;-3.750;2022-07-29T19:30:38;0.98;;;0.40;;
47401;SDS011;33155;48.370;-3.750;2022-07-29T19:33:04;1.48;;;0.75;;
47401;SDS011;33155;48.370;-3.750;2022-07-29T19:35:30;1.40;;;0.40;;
47401;SDS011;33155;48.370;-3.750;2022-07-29T19:37:56;0.32;;;0.32;;
47401;SDS011;33155;48.370;-3.750;2022-07-29T19:40:23;0.50;;;0.40;;
47401;SDS011;33155;48.370;-3.750;2022-07-29T19:42:50;0.50;;;0.50;;
47401;SDS011;33155;48.370;-3.750;2022-07-29T19:45:17;0.50;;;0.45;;
47401;SDS011;33155;48.370;-3.750;2022-07-29T19:47:44;0.40;;;0.40;;
47401;SDS011;33155;48.370;-3.750;2022-07-29T19:50:10;0.85;;;0.57;;
47401;SDS011;33155;48.370;-3.750;2022-07-29T19:52:35;0.73;;;0.45;;
47401;SDS011;33155;48.370;-3.750;2022-07-29T19:55:02;1.55;;;0.57;;
47401;SDS011;33155;48.370;-3.750;2022-07-29T19:57:28;0.93;;;0.80;;
47401;SDS011;33155;48.370;-3.750;2022-07-29T19:59:53;0.98;;;0.40;;
